Time;durP1;ratioP1;P1;durP2;ratioP2;P2;SDS_P1;SDS_P2;PMS_P1;PMS_P2;Temp;Humidity;BMP_temperature;BMP_pressure;BME280_temperature;BME280_humidity;BME280_pressure;Samples;Min_cycle;Max_cycle;Signal;HPM_P1;HPM_P2
2021/10/02 00:37:00;;;;;;;;;;;9.80;99.90;;;;;;8398459;28;19977;-63
2021/10/02 00:41:18;;;;;;;;;;;9.80;99.90;;;;;;8398007;28;19909;-63
2021/10/02 00:45:19;;;;;;;;;;;10.00;99.90;;;;;;8397592;28;19913;-63
2021/10/02 00:49:19;;;;;;;;;;;9.90;99.90;;;;;;8396173;28;19952;-63
2021/10/02 00:53:22;;;;;;;;;;;9.90;99.90;;;;;;8397573;28;20367;-63
2021/10/02 00:57:22;;;;;;;;;;;10.00;99.90;;;;;;8397414;28;20435;-63
2021/10/02 01:01:26;;;;;;;;;;;10.20;99.90;;;;;;8397369;28;19909;-63
2021/10/02 01:05:45;;;;;;;;;;;10.20;99.90;;;;;;8397312;28;19909;-63
2021/10/02 01:09:56;;;;;;;;;;;10.20;99.90;;;;;;8397297;28;20401;-63
2021/10/02 01:13:56;;;;;;;;;;;10.50;99.90;;;;;;8397366;28;19909;-63
2021/10/02 01:18:01;;;;;;;;;;;10.30;99.90;;;;;;8396041;28;19916;-63
2021/10/02 01:22:10;;;;;;;;;;;10.20;99.90;;;;;;8396472;28;19970;-63
2021/10/02 01:26:20;;;;;;;;;;;10.10;99.90;;;;;;8396557;28;19908;-63
2021/10/02 01:47:36;;;;;;;;;;;10.00;99.90;;;;;;8394989;28;20302;-63
2021/10/02 01:51:37;;;;;;;;;;;10.10;99.90;;;;;;8394437;28;19908;-63
2021/10/02 01:55:38;;;;;;;;;;;10.20;99.90;;;;;;8395329;28;19909;-63
2021/10/02 01:59:39;;;;;;;;;;;10.30;99.90;;;;;;8395685;28;20325;-63
2021/10/02 02:03:41;;;;;;;;;;;10.30;99.90;;;;;;8395556;28;19914;-63
2021/10/02 02:07:44;;;;;;;;;;;10.30;99.90;;;;;;8394902;28;19926;-63
2021/10/02 02:11:45;;;;;;;;;;;10.30;99.90;;;;;;8395213;28;19909;-63
2021/10/02 02:15:46;;;;;;;;;;;10.40;99.90;;;;;;8394858;28;20294;-63
2021/10/02 02:19:47;;;;;;;;;;;10.50;99.90;;;;;;8394232;28;19934;-63
2021/10/02 02:23:47;;;;;;;;;;;10.30;99.90;;;;;;8394642;28;19916;-63
2021/10/02 02:27:48;;;;;;;;;;;10.20;99.90;;;;;;8394493;28;19912;-63
2021/10/02 02:31:49;;;;;;;;;;;10.30;99.90;;;;;;8394148;28;20360;-63
2021/10/02 02:35:49;;;;;;;;;;;10.40;99.90;;;;;;8393925;28;19908;-63
2021/10/02 02:39:50;;;;;;;;;;;10.40;99.90;;;;;;8394352;28;19909;-64
2021/10/02 02:43:50;;;;;;;;;;;10.30;99.90;;;;;;8393975;28;19909;-63
2021/10/02 02:48:01;;;;;;;;;;;10.30;99.90;;;;;;8392963;28;20317;-63
2021/10/02 02:52:07;;;;;;;;;;;10.60;99.90;;;;;;8392053;28;19909;-63
2021/10/02 02:56:13;;;;;;;;;;;10.40;99.90;;;;;;8392741;28;20294;-63
2021/10/02 03:00:15;;;;;;;;;;;10.40;99.90;;;;;;8393692;28;20011;-63
2021/10/02 03:04:16;;;;;;;;;;;10.40;99.90;;;;;;8393381;28;19970;-63
2021/10/02 03:08:18;;;;;;;;;;;10.40;99.90;;;;;;8393220;28;19939;-63
2021/10/02 03:12:21;;;;;;;;;;;10.30;99.90;;;;;;8393084;28;19909;-63
2021/10/02 03:16:23;;;;;;;;;;;10.30;99.90;;;;;;8392722;28;19916;-63
2021/10/02 03:20:25;;;;;;;;;;;10.50;99.90;;;;;;8392704;28;19912;-63
2021/10/02 03:24:25;;;;;;;;;;;10.50;99.90;;;;;;8392993;28;19912;-63
2021/10/02 03:28:28;;;;;;;;;;;10.50;99.90;;;;;;8392224;28;19986;-63
2021/10/02 03:32:28;;;;;;;;;;;10.50;99.90;;;;;;8392064;28;20318;-63
2021/10/02 03:36:29;;;;;;;;;;;10.50;99.90;;;;;;8391420;28;19951;-63
2021/10/02 03:40:32;;;;;;;;;;;10.50;99.90;;;;;;8392496;28;20287;-63
2021/10/02 03:44:32;;;;;;;;;;;10.40;99.90;;;;;;8390374;28;19913;-63
2021/10/02 03:48:33;;;;;;;;;;;10.50;99.90;;;;;;8391792;28;19928;-63
2021/10/02 03:52:33;;;;;;;;;;;10.40;99.90;;;;;;8392350;28;19932;-64
2021/10/02 03:56:34;;;;;;;;;;;10.30;99.90;;;;;;8392381;28;20283;-63
2021/10/02 04:00:34;;;;;;;;;;;10.30;99.90;;;;;;8392435;28;19908;-63
2021/10/02 04:04:35;;;;;;;;;;;10.20;99.90;;;;;;8392075;28;19913;-63
2021/10/02 04:08:35;;;;;;;;;;;10.00;99.90;;;;;;8379437;28;20421;-63
2021/10/02 04:12:36;;;;;;;;;;;10.10;99.90;;;;;;8383852;28;19913;-63
2021/10/02 04:16:36;;;;;;;;;;;10.00;99.90;;;;;;8358474;28;19959;-64
2021/10/02 04:20:37;;;;;;;;;;;9.90;99.90;;;;;;8357281;28;19916;-63
2021/10/02 04:24:39;;;;;;;;;;;9.90;99.90;;;;;;8358624;28;19993;-63
2021/10/02 04:28:39;;;;;;;;;;;9.80;99.90;;;;;;8358810;28;19920;-63
2021/10/02 04:32:39;;;;;;;;;;;9.90;99.90;;;;;;8358324;28;20541;-63
2021/10/02 04:36:40;;;;;;;;;;;9.90;99.90;;;;;;8356956;28;20011;-63
2021/10/02 04:40:40;;;;;;;;;;;9.80;99.90;;;;;;8358412;28;19913;-63
2021/10/02 04:44:41;;;;;;;;;;;9.90;99.90;;;;;;8357184;28;19961;-63
2021/10/02 04:48:42;;;;;;;;;;;9.90;99.90;;;;;;8371428;28;19923;-64
2021/10/02 04:52:42;;;;;;;;;;;9.80;99.90;;;;;;8392149;28;19934;-63
2021/10/02 04:56:44;;;;;;;;;;;9.80;99.90;;;;;;8397031;28;19920;-63
2021/10/02 05:00:44;;;;;;;;;;;10.10;99.90;;;;;;8397462;28;19955;-63
2021/10/02 05:04:45;;;;;;;;;;;10.30;99.90;;;;;;8396945;28;19915;-63
2021/10/02 05:08:48;;;;;;;;;;;10.30;99.90;;;;;;8395810;28;19916;-63
2021/10/02 05:12:48;;;;;;;;;;;10.30;99.90;;;;;;8396913;28;19947;-63
2021/10/02 05:16:49;;;;;;;;;;;10.20;99.90;;;;;;8396802;28;19909;-63
2021/10/02 05:20:49;;;;;;;;;;;10.20;99.90;;;;;;8396725;28;19931;-63
2021/10/02 05:24:50;;;;;;;;;;;10.30;99.90;;;;;;8396743;28;20353;-63
2021/10/02 05:28:50;;;;;;;;;;;10.50;99.90;;;;;;8395380;28;19912;-63
2021/10/02 05:32:51;;;;;;;;;;;10.60;99.90;;;;;;8395223;28;19908;-63
2021/10/02 05:36:51;;;;;;;;;;;10.60;99.90;;;;;;8394616;28;19915;-63
2021/10/02 05:40:52;;;;;;;;;;;10.70;99.90;;;;;;8396258;28;19962;-63
2021/10/02 05:44:52;;;;;;;;;;;10.90;99.90;;;;;;8394728;28;19912;-63
2021/10/02 05:48:53;;;;;;;;;;;10.90;99.90;;;;;;8395551;28;19926;-63
2021/10/02 05:52:53;;;;;;;;;;;11.00;99.90;;;;;;8395824;28;19915;-63
2021/10/02 05:56:54;;;;;;;;;;;11.10;99.90;;;;;;8395499;28;20755;-63
2021/10/02 06:00:55;;;;;;;;;;;11.10;99.90;;;;;;8395383;28;20295;-63
2021/10/02 06:04:55;;;;;;;;;;;11.10;99.90;;;;;;8394868;28;19908;-63
2021/10/02 06:08:56;;;;;;;;;;;11.20;99.90;;;;;;8394170;28;19934;-63
2021/10/02 06:12:56;;;;;;;;;;;11.10;99.90;;;;;;8395118;28;19916;-63
2021/10/02 06:16:57;;;;;;;;;;;11.20;99.90;;;;;;8394803;28;20321;-63
2021/10/02 06:20:58;;;;;;;;;;;11.10;99.90;;;;;;8394855;28;19962;-63
2021/10/02 06:24:58;;;;;;;;;;;11.00;99.90;;;;;;8387872;28;19909;-63
2021/10/02 06:28:59;;;;;;;;;;;11.10;99.90;;;;;;8368673;28;20397;-63
2021/10/02 06:32:59;;;;;;;;;;;11.20;99.90;;;;;;8361025;28;19969;-63
2021/10/02 06:37:00;;;;;;;;;;;11.20;99.90;;;;;;8366532;28;19909;-63
2021/10/02 06:41:01;;;;;;;;;;;11.30;99.90;;;;;;8365366;28;20023;-64
2021/10/02 06:45:01;;;;;;;;;;;11.40;99.90;;;;;;8372841;28;19938;-63
2021/10/02 06:49:02;;;;;;;;;;;11.50;99.90;;;;;;8370181;28;19917;-63
2021/10/02 06:53:03;;;;;;;;;;;11.70;99.90;;;;;;8371853;28;20654;-63
2021/10/02 06:57:05;;;;;;;;;;;11.90;99.90;;;;;;8374650;28;19920;-63
2021/10/02 07:01:05;;;;;;;;;;;12.20;99.90;;;;;;8373888;28;19916;-63
2021/10/02 07:05:06;;;;;;;;;;;12.60;99.90;;;;;;8382909;28;19912;-64
2021/10/02 07:09:06;;;;;;;;;;;12.70;99.90;;;;;;8389295;28;19923;-64
2021/10/02 07:13:07;;;;;;;;;;;12.80;99.90;;;;;;8369149;28;19920;-63
2021/10/02 07:17:10;;;;;;;;;;;13.30;99.90;;;;;;8384595;28;19952;-63
2021/10/02 07:21:10;;;;;;;;;;;13.90;99.90;;;;;;8393165;28;19966;-63
2021/10/02 07:25:12;;;;;;;;;;;14.20;99.90;;;;;;8391715;28;20003;-63
2021/10/02 07:29:13;;;;;;;;;;;14.20;99.90;;;;;;8392899;28;19917;-64
2021/10/02 07:33:13;;;;;;;;;;;14.40;99.90;;;;;;8392859;28;19909;-64
2021/10/02 07:37:14;;;;;;;;;;;14.60;99.90;;;;;;8391434;28;19938;-63
2021/10/02 07:41:16;;;;;;;;;;;15.10;99.90;;;;;;8392526;28;19916;-63
2021/10/02 07:45:18;;;;;;;;;;;15.10;99.90;;;;;;8392354;28;19935;-64
2021/10/02 07:49:19;;;;;;;;;;;15.30;99.90;;;;;;8392567;28;19912;-64
2021/10/02 07:53:20;;;;;;;;;;;15.50;99.90;;;;;;8391175;28;20712;-64
2021/10/02 07:57:21;;;;;;;;;;;15.70;99.90;;;;;;8392268;28;19954;-64
2021/10/02 08:01:22;;;;;;;;;;;16.00;99.90;;;;;;8390916;28;20050;-64
2021/10/02 08:05:24;;;;;;;;;;;16.00;99.90;;;;;;8381461;28;19917;-64
2021/10/02 08:09:27;;;;;;;;;;;16.10;99.90;;;;;;8374997;28;19912;-64
2021/10/02 08:13:28;;;;;;;;;;;16.30;99.90;;;;;;8375839;28;19913;-64
2021/10/02 08:17:29;;;;;;;;;;;16.50;99.90;;;;;;8360163;28;19913;-64
2021/10/02 08:21:30;;;;;;;;;;;16.60;99.90;;;;;;8358490;28;19917;-64
2021/10/02 08:25:31;;;;;;;;;;;16.80;99.90;;;;;;8358250;28;19908;-64
2021/10/02 08:29:31;;;;;;;;;;;17.00;99.90;;;;;;8360600;28;19913;-64
2021/10/02 08:33:32;;;;;;;;;;;17.20;99.90;;;;;;8365050;28;19920;-64
2021/10/02 08:37:33;;;;;;;;;;;17.40;99.90;;;;;;8364714;28;19926;-64
2021/10/02 08:41:34;;;;;;;;;;;17.50;99.90;;;;;;8363712;28;19919;-63
2021/10/02 08:45:34;;;;;;;;;;;17.20;99.90;;;;;;8363392;28;19909;-64
2021/10/02 08:49:41;;;;;;;;;;;17.00;99.90;;;;;;8385912;28;19978;-64
2021/10/02 08:53:42;;;;;;;;;;;17.00;99.90;;;;;;8397974;28;20058;-64
2021/10/02 08:57:44;;;;;;;;;;;17.30;99.90;;;;;;8397245;28;20359;-64
2021/10/02 09:01:44;;;;;;;;;;;18.10;99.90;;;;;;8397634;28;20375;-64
2021/10/02 09:05:45;;;;;;;;;;;19.10;99.90;;;;;;8397205;28;19947;-64
2021/10/02 09:09:47;;;;;;;;;;;19.70;99.90;;;;;;8396103;28;19946;-64
2021/10/02 09:13:47;;;;;;;;;;;19.60;99.90;;;;;;8397206;28;19930;-64
2021/10/02 09:17:48;;;;;;;;;;;19.50;99.90;;;;;;8396917;28;19908;-64
2021/10/02 09:22:01;;;;;;;;;;;19.60;99.90;;;;;;8395566;28;19999;-64
2021/10/02 09:26:05;;;;;;;;;;;19.90;99.90;;;;;;8390323;28;20414;-64
2021/10/02 09:30:11;;;;;;;;;;;20.10;99.90;;;;;;8362319;28;20306;-64
2021/10/02 09:34:21;;;;;;;;;;;20.20;99.90;;;;;;8390549;28;20680;-64
2021/10/02 09:38:23;;;;;;;;;;;20.50;99.90;;;;;;8389360;28;19969;-63
2021/10/02 09:42:23;;;;;;;;;;;20.60;99.90;;;;;;8360202;28;20004;-64
2021/10/02 09:46:34;;;;;;;;;;;20.50;99.90;;;;;;8370285;28;19920;-64
2021/10/02 09:50:36;;;;;;;;;;;20.60;99.90;;;;;;8371897;28;20303;-64
2021/10/02 09:54:38;;;;;;;;;;;20.90;99.90;;;;;;8373098;28;19912;-64
2021/10/02 09:58:39;;;;;;;;;;;21.10;99.90;;;;;;8362872;28;19971;-64
2021/10/02 10:02:40;;;;;;;;;;;21.30;99.90;;;;;;8362652;28;19909;-64
2021/10/02 10:06:41;;;;;;;;;;;21.40;99.90;;;;;;8361065;28;19908;-64
2021/10/02 10:10:42;;;;;;;;;;;21.40;99.90;;;;;;8378314;28;19920;-64
2021/10/02 10:14:42;;;;;;;;;;;21.60;99.90;;;;;;8380161;28;19924;-64
2021/10/02 10:18:43;;;;;;;;;;;21.70;99.90;;;;;;8377316;28;19921;-64
2021/10/02 10:22:44;;;;;;;;;;;21.50;99.90;;;;;;8367057;28;20007;-64
2021/10/02 10:26:45;;;;;;;;;;;21.70;99.90;;;;;;8368912;28;20011;-73
2021/10/02 10:30:48;;;;;;;;;;;21.70;99.90;;;;;;8368910;28;20402;-73
2021/10/02 10:34:48;;;;;;;;;;;22.10;99.90;;;;;;8393546;28;19913;-74
2021/10/02 10:38:50;;;;;;;;;;;22.70;99.90;;;;;;8374040;28;19913;-74
2021/10/02 10:42:51;;;;;;;;;;;24.40;99.90;;;;;;8370390;28;20050;-74
2021/10/02 10:46:52;;;;;;;;;;;27.10;99.90;;;;;;8383125;28;19936;-74
2021/10/02 10:50:52;;;;;;;;;;;27.00;96.30;;;;;;8375782;28;19908;-74
2021/10/02 10:54:53;;;;;;;;;;;26.40;98.20;;;;;;8361007;28;19924;-73
2021/10/02 10:59:00;;;;;;;;;;;25.80;96.60;;;;;;8369570;28;20268;-74
2021/10/02 11:03:07;;;;;;;;;;;25.30;97.10;;;;;;8368002;28;19920;-66
2021/10/02 11:07:13;;;;;;;;;;;24.80;97.50;;;;;;8378355;28;20398;-67
2021/10/02 11:11:14;;;;;;;;;;;24.40;97.90;;;;;;8374345;28;19923;-67
2021/10/02 11:15:23;;;;;;;;;;;25.00;98.20;;;;;;8376763;28;20012;-67
2021/10/02 11:19:50;;;;;;;;;;;26.70;95.50;;;;;;8372226;28;19917;-68
2021/10/02 11:23:50;;;;;;;;;;;29.90;87.30;;;;;;8371463;28;19944;-67
2021/10/02 11:27:51;;;;;;;;;;;31.70;68.60;;;;;;8363590;28;19970;-67
2021/10/02 11:32:12;;;;;;;;;;;32.80;64.90;;;;;;8370856;28;19913;-67
2021/10/02 11:36:27;;;;;;;;;;;34.50;59.40;;;;;;8365083;28;20321;-68
2021/10/02 11:40:40;;;;;;;;;;;36.20;51.30;;;;;;8366361;28;19912;-68
2021/10/02 11:44:44;;;;;;;;;;;36.30;48.60;;;;;;8368752;28;20495;-68
2021/10/02 11:48:45;;;;;;;;;;;35.70;47.90;;;;;;8364699;28;20386;-67
2021/10/02 11:52:45;;;;;;;;;;;35.70;46.50;;;;;;8362039;28;20299;-66
2021/10/02 11:57:05;;;;;;;;;;;36.80;45.60;;;;;;8373284;28;19916;-68
2021/10/02 12:01:05;;;;;;;;;;;37.90;42.60;;;;;;8378938;28;19923;-67
2021/10/02 12:05:06;;;;;;;;;;;37.60;42.20;;;;;;8363660;28;19921;-67
2021/10/02 12:09:14;;;;;;;;;;;38.00;41.60;;;;;;8360343;28;20330;-68
2021/10/02 12:13:18;;;;;;;;;;;39.20;38.70;;;;;;8366777;28;19966;-67
2021/10/02 12:17:20;;;;;;;;;;;37.80;40.50;;;;;;8373305;28;19995;-68
2021/10/02 12:21:27;;;;;;;;;;;38.60;40.60;;;;;;8365254;28;19939;-67
2021/10/02 12:25:27;;;;;;;;;;;38.20;40.10;;;;;;8358344;28;19928;-68
2021/10/02 12:29:38;;;;;;;;;;;38.50;38.50;;;;;;8375011;28;19920;-68
2021/10/02 12:33:39;;;;;;;;;;;39.20;36.70;;;;;;8364727;28;19920;-67
2021/10/02 12:37:41;;;;;;;;;;;40.20;35.80;;;;;;8355401;28;20018;-68
2021/10/02 12:41:42;;;;;;;;;;;39.60;36.20;;;;;;8359609;28;20019;-67
2021/10/02 12:45:42;;;;;;;;;;;38.30;36.50;;;;;;8361250;28;19999;-68
2021/10/02 12:49:45;;;;;;;;;;;39.00;36.20;;;;;;8373615;28;19922;-68
2021/10/02 12:53:45;;;;;;;;;;;38.50;36.80;;;;;;8385727;28;19919;-67
2021/10/02 12:57:46;;;;;;;;;;;37.10;38.50;;;;;;8374797;28;19908;-68
2021/10/02 13:01:49;;;;;;;;;;;37.40;37.60;;;;;;8372999;28;20007;-67
2021/10/02 13:05:58;;;;;;;;;;;38.10;38.20;;;;;;8373308;28;19925;-68
2021/10/02 13:10:18;;;;;;;;;;;38.40;36.70;;;;;;8375665;28;19917;-68
2021/10/02 13:14:47;;;;;;;;;;;39.10;37.30;;;;;;8382885;28;19912;-68
2021/10/02 13:18:48;;;;;;;;;;;39.90;36.40;;;;;;8370597;28;20017;-68
2021/10/02 13:22:49;;;;;;;;;;;40.20;35.70;;;;;;8379307;28;19924;-68
2021/10/02 13:26:49;;;;;;;;;;;40.10;36.10;;;;;;8368623;28;20026;-67
2021/10/02 13:30:51;;;;;;;;;;;38.50;36.60;;;;;;8363971;28;19922;-68
2021/10/02 13:34:52;;;;;;;;;;;37.60;37.40;;;;;;8369960;28;20379;-67
2021/10/02 13:38:53;;;;;;;;;;;34.90;40.40;;;;;;8372620;28;19938;-68
2021/10/02 13:42:54;;;;;;;;;;;32.40;44.50;;;;;;8369172;28;19916;-67
2021/10/02 13:46:59;;;;;;;;;;;32.10;46.50;;;;;;8357839;28;19909;-68
2021/10/02 13:51:00;;;;;;;;;;;32.00;46.50;;;;;;8364159;28;19916;-67
2021/10/02 13:55:00;;;;;;;;;;;33.00;44.40;;;;;;8360268;28;19913;-68
2021/10/02 13:59:01;;;;;;;;;;;34.90;41.80;;;;;;8372887;28;20008;-68
2021/10/02 14:03:01;;;;;;;;;;;35.70;39.60;;;;;;8394421;28;19912;-68
2021/10/02 14:07:03;;;;;;;;;;;35.40;40.20;;;;;;8391398;28;19952;-68
2021/10/02 14:11:03;;;;;;;;;;;34.90;40.60;;;;;;8360783;28;19930;-67
2021/10/02 14:15:05;;;;;;;;;;;34.20;42.40;;;;;;8368882;28;20299;-67
2021/10/02 14:19:06;;;;;;;;;;;33.30;43.70;;;;;;8369842;28;20332;-67
2021/10/02 14:23:06;;;;;;;;;;;33.50;44.30;;;;;;8370247;28;19924;-68
2021/10/02 14:27:07;;;;;;;;;;;32.90;45.20;;;;;;8364746;28;20379;-68
2021/10/02 14:31:08;;;;;;;;;;;32.60;46.10;;;;;;8368854;28;19916;-68
2021/10/02 14:35:09;;;;;;;;;;;31.70;47.20;;;;;;8368576;28;19917;-67
2021/10/02 14:39:09;;;;;;;;;;;30.40;48.80;;;;;;8363848;28;19917;-67
2021/10/02 14:43:12;;;;;;;;;;;30.00;50.00;;;;;;8367023;28;22320;-67
2021/10/02 14:47:13;;;;;;;;;;;29.30;51.30;;;;;;8370511;28;20015;-67
2021/10/02 14:51:14;;;;;;;;;;;28.70;54.00;;;;;;8360336;28;20011;-67
2021/10/02 14:55:15;;;;;;;;;;;28.10;55.00;;;;;;8359409;28;20303;-67
2021/10/02 14:59:16;;;;;;;;;;;27.70;55.30;;;;;;8356868;28;19909;-67
2021/10/02 15:03:17;;;;;;;;;;;27.60;55.50;;;;;;8368975;28;19913;-68
2021/10/02 15:07:20;;;;;;;;;;;27.70;56.00;;;;;;8381763;28;19924;-68
2021/10/02 15:11:20;;;;;;;;;;;27.80;57.90;;;;;;8392230;28;19962;-68
2021/10/02 15:15:21;;;;;;;;;;;27.90;57.80;;;;;;8390074;28;19913;-68
2021/10/02 15:19:21;;;;;;;;;;;27.50;58.10;;;;;;8373020;28;19909;-68
2021/10/02 15:23:27;;;;;;;;;;;27.20;59.10;;;;;;8358867;28;19920;-68
2021/10/02 15:27:29;;;;;;;;;;;27.00;60.40;;;;;;8357695;28;19916;-68
2021/10/02 15:31:31;;;;;;;;;;;26.60;63.10;;;;;;8387409;28;20386;-68
2021/10/02 15:35:34;;;;;;;;;;;26.50;65.40;;;;;;8368675;28;20587;-68
2021/10/02 15:39:35;;;;;;;;;;;26.50;64.40;;;;;;8374114;28;20007;-68
2021/10/02 15:43:35;;;;;;;;;;;26.50;65.70;;;;;;8377217;28;19909;-68
2021/10/02 15:47:36;;;;;;;;;;;26.20;67.60;;;;;;8368838;28;19921;-68
2021/10/02 15:51:37;;;;;;;;;;;26.10;67.60;;;;;;8359536;28;20410;-68
2021/10/02 15:55:38;;;;;;;;;;;25.90;70.20;;;;;;8371958;28;19912;-68
2021/10/02 15:59:47;;;;;;;;;;;25.40;72.90;;;;;;8392610;28;19955;-68
2021/10/02 16:04:05;;;;;;;;;;;24.70;77.40;;;;;;8369391;28;19917;-68
2021/10/02 16:08:09;;;;;;;;;;;24.30;80.40;;;;;;8371114;28;19916;-68
2021/10/02 16:12:09;;;;;;;;;;;24.20;83.70;;;;;;8392092;28;19912;-68
2021/10/02 16:16:11;;;;;;;;;;;23.80;84.40;;;;;;8387381;28;20441;-68
2021/10/02 16:20:12;;;;;;;;;;;;;;;;;;8367978;28;19912;-67
2021/10/02 16:24:13;;;;;;;;;;;22.80;90.80;;;;;;8362310;28;19921;-67
2021/10/02 16:28:13;;;;;;;;;;;22.30;93.10;;;;;;8364362;28;19928;-67
2021/10/02 16:32:15;;;;;;;;;;;21.60;96.20;;;;;;8367843;28;19999;-68
2021/10/02 16:36:15;;;;;;;;;;;21.10;99.60;;;;;;8350154;28;19920;-67
2021/10/02 16:40:16;;;;;;;;;;;20.70;99.90;;;;;;8352117;28;19924;-68
2021/10/02 16:44:16;;;;;;;;;;;20.20;99.90;;;;;;8353003;28;19940;-68
2021/10/02 16:48:18;;;;;;;;;;;19.70;99.90;;;;;;8377732;28;20681;-67
2021/10/02 16:52:20;;;;;;;;;;;;;;;;;;8365757;28;19920;-68
2021/10/02 16:56:20;;;;;;;;;;;19.30;99.90;;;;;;8363804;28;19971;-68
2021/10/02 17:00:23;;;;;;;;;;;18.80;99.90;;;;;;8362792;28;19915;-68
2021/10/02 17:04:23;;;;;;;;;;;18.40;99.90;;;;;;8364516;28;19924;-68
2021/10/02 17:08:24;;;;;;;;;;;18.10;99.90;;;;;;8387213;28;20366;-68
2021/10/02 17:12:25;;;;;;;;;;;18.00;99.90;;;;;;8381864;28;19926;-68
2021/10/02 17:16:25;;;;;;;;;;;17.90;99.90;;;;;;8375282;28;20054;-70
2021/10/02 17:20:25;;;;;;;;;;;17.80;99.90;;;;;;8376051;28;20375;-70
2021/10/02 17:24:26;;;;;;;;;;;17.60;99.90;;;;;;8375308;28;19952;-69
2021/10/02 17:28:26;;;;;;;;;;;17.40;99.90;;;;;;8376723;28;20011;-70
2021/10/02 17:32:27;;;;;;;;;;;17.00;99.90;;;;;;8369864;28;19923;-65
2021/10/02 17:36:28;;;;;;;;;;;16.90;99.90;;;;;;8377048;28;19921;-65
2021/10/02 17:40:29;;;;;;;;;;;17.00;99.90;;;;;;8377989;28;19917;-65
2021/10/02 17:44:29;;;;;;;;;;;16.80;99.90;;;;;;8372252;28;19917;-65
2021/10/02 17:48:30;;;;;;;;;;;16.50;99.90;;;;;;8373732;28;19916;-65
2021/10/02 17:52:31;;;;;;;;;;;16.30;99.90;;;;;;8376398;28;19916;-65
2021/10/02 17:56:32;;;;;;;;;;;16.00;99.90;;;;;;8381723;28;19952;-65
2021/10/02 18:00:34;;;;;;;;;;;15.90;99.90;;;;;;8373171;28;20399;-65
2021/10/02 18:04:35;;;;;;;;;;;15.80;99.90;;;;;;8371614;28;20597;-65
2021/10/02 18:08:36;;;;;;;;;;;15.70;99.90;;;;;;8377159;28;19928;-65
2021/10/02 18:12:36;;;;;;;;;;;15.60;99.90;;;;;;8374226;28;19913;-65
2021/10/02 18:16:37;;;;;;;;;;;15.70;99.90;;;;;;8374424;28;19919;-65
2021/10/02 18:20:37;;;;;;;;;;;15.40;99.90;;;;;;8369178;28;19939;-65
2021/10/02 18:24:40;;;;;;;;;;;15.00;99.90;;;;;;8375322;28;19913;-65
2021/10/02 18:28:41;;;;;;;;;;;15.10;99.90;;;;;;8374389;28;19920;-65
2021/10/02 18:32:42;;;;;;;;;;;15.20;99.90;;;;;;8378935;28;19913;-65
2021/10/02 18:36:42;;;;;;;;;;;15.20;99.90;;;;;;8371632;28;19913;-65
2021/10/02 18:40:43;;;;;;;;;;;15.30;99.90;;;;;;8389119;28;19986;-65
2021/10/02 18:44:43;;;;;;;;;;;15.10;99.90;;;;;;8374429;28;19959;-65
2021/10/02 18:48:44;;;;;;;;;;;14.90;99.90;;;;;;8390290;28;20646;-65
2021/10/02 18:52:45;;;;;;;;;;;14.80;99.90;;;;;;8376079;28;19920;-66
2021/10/02 18:56:46;;;;;;;;;;;14.70;99.90;;;;;;8362251;28;19921;-65
2021/10/02 19:00:46;;;;;;;;;;;14.70;99.90;;;;;;8371198;28;19920;-65
2021/10/02 19:04:47;;;;;;;;;;;14.60;99.90;;;;;;8372503;28;19913;-65
2021/10/02 19:08:51;;;;;;;;;;;14.50;99.90;;;;;;8375881;28;19917;-64
2021/10/02 19:12:51;;;;;;;;;;;14.30;99.90;;;;;;8364813;28;19913;-64
2021/10/02 19:16:52;;;;;;;;;;;14.00;99.90;;;;;;8363668;28;20290;-64
2021/10/02 19:20:53;;;;;;;;;;;13.90;99.90;;;;;;8364797;28;19921;-64
2021/10/02 19:24:53;;;;;;;;;;;13.80;99.90;;;;;;8369392;28;20014;-65
2021/10/02 19:28:54;;;;;;;;;;;13.70;99.90;;;;;;8374550;28;19924;-64
2021/10/02 19:32:55;;;;;;;;;;;13.60;99.90;;;;;;8371746;28;19916;-64
2021/10/02 19:36:55;;;;;;;;;;;13.80;99.90;;;;;;8370736;28;19913;-64
2021/10/02 19:40:56;;;;;;;;;;;13.80;99.90;;;;;;8372613;28;19994;-64
2021/10/02 19:44:56;;;;;;;;;;;13.60;99.90;;;;;;8366202;28;20298;-64
2021/10/02 19:48:57;;;;;;;;;;;13.40;99.90;;;;;;8389308;28;20394;-64
2021/10/02 19:52:58;;;;;;;;;;;13.20;99.90;;;;;;8379717;28;20375;-64
2021/10/02 19:56:58;;;;;;;;;;;13.00;99.90;;;;;;8362866;28;19912;-64
2021/10/02 20:00:59;;;;;;;;;;;13.20;99.90;;;;;;8376171;28;20382;-64
2021/10/02 20:04:59;;;;;;;;;;;13.40;99.90;;;;;;8366032;28;19963;-64
2021/10/02 20:09:00;;;;;;;;;;;13.30;99.90;;;;;;8356120;28;19921;-64
2021/10/02 20:13:00;;;;;;;;;;;13.20;99.90;;;;;;8358503;28;19913;-64
2021/10/02 20:17:01;;;;;;;;;;;12.90;99.90;;;;;;8355856;28;19909;-64
2021/10/02 20:21:03;;;;;;;;;;;13.00;99.90;;;;;;8356090;28;19917;-64
2021/10/02 20:25:04;;;;;;;;;;;13.00;99.90;;;;;;8358655;28;19924;-64
2021/10/02 20:29:05;;;;;;;;;;;12.90;99.90;;;;;;8365052;28;20007;-64
2021/10/02 20:33:06;;;;;;;;;;;12.80;99.90;;;;;;8359237;28;19917;-64
2021/10/02 20:37:06;;;;;;;;;;;12.60;99.90;;;;;;8359311;28;19912;-64
2021/10/02 20:41:07;;;;;;;;;;;12.40;99.90;;;;;;8361810;28;19912;-64
2021/10/02 20:45:08;;;;;;;;;;;12.10;99.90;;;;;;8361939;28;19913;-64
2021/10/02 20:49:08;;;;;;;;;;;12.00;99.90;;;;;;8377673;28;19916;-64
2021/10/02 20:53:09;;;;;;;;;;;12.00;99.90;;;;;;8396901;28;19969;-64
2021/10/02 20:57:09;;;;;;;;;;;12.10;99.90;;;;;;8397534;28;20364;-64
2021/10/02 21:01:10;;;;;;;;;;;11.90;99.90;;;;;;8397773;28;19916;-64
2021/10/02 21:05:10;;;;;;;;;;;11.80;99.90;;;;;;8396897;28;19916;-64
2021/10/02 21:09:11;;;;;;;;;;;11.70;99.90;;;;;;8397489;28;19916;-64
2021/10/02 21:13:11;;;;;;;;;;;11.90;99.90;;;;;;8397243;28;19991;-64
2021/10/02 21:17:12;;;;;;;;;;;11.60;99.90;;;;;;8396975;28;19915;-64
2021/10/02 21:21:12;;;;;;;;;;;11.60;99.90;;;;;;8397296;28;19927;-64
2021/10/02 21:25:14;;;;;;;;;;;11.70;99.90;;;;;;8396706;28;19915;-64
2021/10/02 21:29:18;;;;;;;;;;;11.40;99.90;;;;;;8397039;28;19942;-63
2021/10/02 21:33:21;;;;;;;;;;;11.50;99.90;;;;;;8395615;28;19938;-64
2021/10/02 21:37:22;;;;;;;;;;;11.30;99.90;;;;;;8396372;28;19909;-64
2021/10/02 21:41:22;;;;;;;;;;;11.40;99.90;;;;;;8396708;28;20314;-64
2021/10/02 21:45:23;;;;;;;;;;;11.30;99.90;;;;;;8396202;28;19928;-64
2021/10/02 21:49:24;;;;;;;;;;;11.10;99.90;;;;;;8395098;28;20100;-64
2021/10/02 21:53:26;;;;;;;;;;;11.00;99.90;;;;;;8396017;28;20394;-64
2021/10/02 21:57:27;;;;;;;;;;;10.90;99.90;;;;;;8395828;28;19916;-64
2021/10/02 22:01:32;;;;;;;;;;;11.10;99.90;;;;;;8396278;28;20397;-64
2021/10/02 22:05:34;;;;;;;;;;;10.90;99.90;;;;;;8395383;28;19912;-64
2021/10/02 22:09:35;;;;;;;;;;;10.70;99.90;;;;;;8395907;28;19956;-63
2021/10/02 22:13:36;;;;;;;;;;;10.80;99.90;;;;;;8395972;28;20447;-64
2021/10/02 22:17:38;;;;;;;;;;;10.90;99.90;;;;;;8395354;28;19912;-63
2021/10/02 22:21:39;;;;;;;;;;;11.00;99.90;;;;;;8395499;28;19917;-64
2021/10/02 22:25:43;;;;;;;;;;;10.90;99.90;;;;;;8393524;28;20278;-64
2021/10/02 22:29:44;;;;;;;;;;;10.80;99.90;;;;;;8395149;28;19967;-64
2021/10/02 22:33:45;;;;;;;;;;;11.00;99.90;;;;;;8394932;28;20290;-64
2021/10/02 22:37:46;;;;;;;;;;;10.80;99.90;;;;;;8394451;28;19908;-63
2021/10/02 22:41:46;;;;;;;;;;;10.80;99.90;;;;;;8394629;28;20383;-64
2021/10/02 22:45:47;;;;;;;;;;;10.70;99.90;;;;;;8394562;28;19999;-63
2021/10/02 22:49:49;;;;;;;;;;;10.50;99.90;;;;;;8393784;28;19917;-63
2021/10/02 22:53:49;;;;;;;;;;;10.50;99.90;;;;;;8394086;28;20329;-64
2021/10/02 22:57:50;;;;;;;;;;;10.50;99.90;;;;;;8392562;28;19958;-63
2021/10/02 23:01:51;;;;;;;;;;;10.30;99.90;;;;;;8393965;28;19917;-64
2021/10/02 23:05:55;;;;;;;;;;;10.50;99.90;;;;;;8393242;28;20299;-63
2021/10/02 23:09:56;;;;;;;;;;;10.70;99.90;;;;;;8393743;28;19912;-63
2021/10/02 23:13:57;;;;;;;;;;;10.60;99.90;;;;;;8393548;28;19915;-64
2021/10/02 23:17:59;;;;;;;;;;;10.30;99.90;;;;;;8391895;28;20362;-64
2021/10/02 23:22:00;;;;;;;;;;;10.00;99.90;;;;;;8391523;28;19917;-64
2021/10/02 23:26:01;;;;;;;;;;;10.00;99.90;;;;;;8391758;28;19908;-64
2021/10/02 23:30:02;;;;;;;;;;;10.00;99.90;;;;;;8393329;28;19912;-63
2021/10/02 23:34:02;;;;;;;;;;;10.00;99.90;;;;;;8392941;28;19908;-63
2021/10/02 23:38:03;;;;;;;;;;;10.30;99.90;;;;;;8392698;28;19970;-64
2021/10/02 23:42:04;;;;;;;;;;;10.20;99.90;;;;;;8392905;28;19912;-63
2021/10/02 23:46:06;;;;;;;;;;;10.30;99.90;;;;;;8392750;28;19958;-63
2021/10/02 23:50:07;;;;;;;;;;;10.40;99.90;;;;;;8391410;28;19916;-63
2021/10/02 23:54:08;;;;;;;;;;;10.40;99.90;;;;;;8391267;28;19909;-63
2021/10/02 23:58:10;;;;;;;;;;;10.20;99.90;;;;;;8391669;28;19987;-64
